sensor_id;sensor_type;location;lat;lon;timestamp;temperature;humidity
35563;DHT22;21665;40.108;18.302;2022-12-18T00:39:09;11.20;99.90
35563;DHT22;21665;40.108;18.302;2022-12-18T00:56:42;11.10;99.90
35563;DHT22;21665;40.108;18.302;2022-12-18T00:59:09;11.20;99.90
35563;DHT22;21665;40.108;18.302;2022-12-18T01:01:39;11.10;99.90
35563;DHT22;21665;40.108;18.302;2022-12-18T01:04:05;11.20;99.90
35563;DHT22;21665;40.108;18.302;2022-12-18T01:06:32;11.20;99.90
35563;DHT22;21665;40.108;18.302;2022-12-18T01:08:59;11.10;99.90
35563;DHT22;21665;40.108;18.302;2022-12-18T01:11:26;11.10;99.90
35563;DHT22;21665;40.108;18.302;2022-12-18T01:13:53;11.10;99.90
35563;DHT22;21665;40.108;18.302;2022-12-18T01:16:22;11.10;99.90
35563;DHT22;21665;40.108;18.302;2022-12-18T01:18:52;11.00;99.90
35563;DHT22;21665;40.108;18.302;2022-12-18T01:21:20;10.90;99.90
35563;DHT22;21665;40.108;18.302;2022-12-18T01:23:59;11.00;99.90
35563;DHT22;21665;40.108;18.302;2022-12-18T01:26:27;10.90;99.90
35563;DHT22;21665;40.108;18.302;2022-12-18T01:28:57;11.00;99.90
35563;DHT22;21665;40.108;18.302;2022-12-18T01:31:29;11.00;99.90
35563;DHT22;21665;40.108;18.302;2022-12-18T01:33:57;11.00;99.90
35563;DHT22;21665;40.108;18.302;2022-12-18T01:36:37;11.10;99.90
35563;DHT22;21665;40.108;18.302;2022-12-18T01:39:10;11.10;99.90
35563;DHT22;21665;40.108;18.302;2022-12-18T01:41:41;11.10;99.90
35563;DHT22;21665;40.108;18.302;2022-12-18T01:47:41;10.90;99.90
35563;DHT22;21665;40.108;18.302;2022-12-18T01:50:24;10.90;99.90
35563;DHT22;21665;40.108;18.302;2022-12-18T01:53:00;10.90;99.90
35563;DHT22;21665;40.108;18.302;2022-12-18T01:55:32;10.90;99.90
35563;DHT22;21665;40.108;18.302;2022-12-18T01:58:02;11.00;99.90
35563;DHT22;21665;40.108;18.302;2022-12-18T02:00:29;11.00;99.90
35563;DHT22;21665;40.108;18.302;2022-12-18T02:02:56;11.00;99.90
35563;DHT22;21665;40.108;18.302;2022-12-18T02:10:41;11.00;99.90
35563;DHT22;21665;40.108;18.302;2022-12-18T02:13:53;10.90;99.90
35563;DHT22;21665;40.108;18.302;2022-12-18T02:16:44;11.00;99.90
35563;DHT22;21665;40.108;18.302;2022-12-18T02:27:40;10.80;99.90
35563;DHT22;21665;40.108;18.302;2022-12-18T02:30:09;10.70;99.90
35563;DHT22;21665;40.108;18.302;2022-12-18T02:32:40;10.80;99.90
35563;DHT22;21665;40.108;18.302;2022-12-18T02:35:17;10.70;99.90
35563;DHT22;21665;40.108;18.302;2022-12-18T02:37:54;10.70;99.90
35563;DHT22;21665;40.108;18.302;2022-12-18T02:40:23;10.70;99.90
35563;DHT22;21665;40.108;18.302;2022-12-18T02:42:51;10.80;99.90
35563;DHT22;21665;40.108;18.302;2022-12-18T02:45:22;10.90;99.90
35563;DHT22;21665;40.108;18.302;2022-12-18T02:47:51;11.00;99.90
35563;DHT22;21665;40.108;18.302;2022-12-18T02:50:36;11.10;99.90
35563;DHT22;21665;40.108;18.302;2022-12-18T02:53:38;11.20;99.90
35563;DHT22;21665;40.108;18.302;2022-12-18T02:56:17;11.20;99.90
35563;DHT22;21665;40.108;18.302;2022-12-18T03:02:06;11.30;99.90
35563;DHT22;21665;40.108;18.302;2022-12-18T03:07:45;11.30;99.90
35563;DHT22;21665;40.108;18.302;2022-12-18T03:10:18;11.20;99.90
35563;DHT22;21665;40.108;18.302;2022-12-18T03:12:52;11.20;99.90
35563;DHT22;21665;40.108;18.302;2022-12-18T03:15:30;11.20;99.90
35563;DHT22;21665;40.108;18.302;2022-12-18T03:18:38;11.20;99.90
35563;DHT22;21665;40.108;18.302;2022-12-18T03:21:08;11.20;99.90
35563;DHT22;21665;40.108;18.302;2022-12-18T03:23:49;11.20;99.90
35563;DHT22;21665;40.108;18.302;2022-12-18T03:26:27;11.20;99.90
35563;DHT22;21665;40.108;18.302;2022-12-18T03:29:14;11.20;99.90
35563;DHT22;21665;40.108;18.302;2022-12-18T03:31:49;11.20;99.90
35563;DHT22;21665;40.108;18.302;2022-12-18T03:34:32;11.20;99.90
35563;DHT22;21665;40.108;18.302;2022-12-18T03:37:08;11.30;99.90
35563;DHT22;21665;40.108;18.302;2022-12-18T03:39:36;11.30;99.90
35563;DHT22;21665;40.108;18.302;2022-12-18T03:45:11;11.20;99.90
35563;DHT22;21665;40.108;18.302;2022-12-18T03:50:48;11.20;99.90
35563;DHT22;21665;40.108;18.302;2022-12-18T03:53:36;11.20;99.90
35563;DHT22;21665;40.108;18.302;2022-12-18T03:56:09;11.20;99.90
35563;DHT22;21665;40.108;18.302;2022-12-18T03:58:42;11.20;99.90
35563;DHT22;21665;40.108;18.302;2022-12-18T04:01:17;11.40;99.90
35563;DHT22;21665;40.108;18.302;2022-12-18T04:03:47;11.40;99.90
35563;DHT22;21665;40.108;18.302;2022-12-18T04:06:18;11.40;99.90
35563;DHT22;21665;40.108;18.302;2022-12-18T04:08:46;11.50;99.90
35563;DHT22;21665;40.108;18.302;2022-12-18T04:11:18;11.50;99.90
35563;DHT22;21665;40.108;18.302;2022-12-18T04:13:47;11.40;99.90
35563;DHT22;21665;40.108;18.302;2022-12-18T04:16:39;11.30;99.90
35563;DHT22;21665;40.108;18.302;2022-12-18T04:19:10;11.20;99.90
35563;DHT22;21665;40.108;18.302;2022-12-18T04:21:42;11.10;99.90
35563;DHT22;21665;40.108;18.302;2022-12-18T04:24:14;11.10;99.90
35563;DHT22;21665;40.108;18.302;2022-12-18T04:26:50;11.10;99.90
35563;DHT22;21665;40.108;18.302;2022-12-18T04:29:22;11.00;99.90
35563;DHT22;21665;40.108;18.302;2022-12-18T04:31:49;10.90;99.90
35563;DHT22;21665;40.108;18.302;2022-12-18T04:34:19;11.00;99.90
35563;DHT22;21665;40.108;18.302;2022-12-18T04:36:50;11.00;99.90
35563;DHT22;21665;40.108;18.302;2022-12-18T04:39:18;11.00;99.90
35563;DHT22;21665;40.108;18.302;2022-12-18T04:41:48;11.00;99.90
35563;DHT22;21665;40.108;18.302;2022-12-18T04:44:15;11.10;99.90
35563;DHT22;21665;40.108;18.302;2022-12-18T04:46:42;11.00;99.90
35563;DHT22;21665;40.108;18.302;2022-12-18T04:49:15;11.10;99.90
35563;DHT22;21665;40.108;18.302;2022-12-18T04:51:42;11.10;99.90
35563;DHT22;21665;40.108;18.302;2022-12-18T04:54:08;11.10;99.90
35563;DHT22;21665;40.108;18.302;2022-12-18T04:56:38;11.10;99.90
35563;DHT22;21665;40.108;18.302;2022-12-18T04:59:05;11.10;99.90
35563;DHT22;21665;40.108;18.302;2022-12-18T05:01:31;11.10;99.90
35563;DHT22;21665;40.108;18.302;2022-12-18T05:03:58;11.20;99.90
35563;DHT22;21665;40.108;18.302;2022-12-18T05:06:24;11.30;99.90
35563;DHT22;21665;40.108;18.302;2022-12-18T05:08:51;11.30;99.90
35563;DHT22;21665;40.108;18.302;2022-12-18T05:11:18;11.30;99.90
35563;DHT22;21665;40.108;18.302;2022-12-18T05:13:45;11.30;99.90
35563;DHT22;21665;40.108;18.302;2022-12-18T05:16:12;11.30;99.90
35563;DHT22;21665;40.108;18.302;2022-12-18T05:18:39;11.40;99.90
35563;DHT22;21665;40.108;18.302;2022-12-18T05:21:06;11.50;99.90
35563;DHT22;21665;40.108;18.302;2022-12-18T05:23:36;11.60;99.90
35563;DHT22;21665;40.108;18.302;2022-12-18T05:26:04;11.60;99.90
35563;DHT22;21665;40.108;18.302;2022-12-18T05:28:37;11.70;99.90
35563;DHT22;21665;40.108;18.302;2022-12-18T05:31:04;11.70;99.90
35563;DHT22;21665;40.108;18.302;2022-12-18T05:33:33;11.70;99.90
35563;DHT22;21665;40.108;18.302;2022-12-18T05:36:05;11.70;99.90
35563;DHT22;21665;40.108;18.302;2022-12-18T05:38:37;11.70;99.90
35563;DHT22;21665;40.108;18.302;2022-12-18T05:41:06;11.70;99.90
35563;DHT22;21665;40.108;18.302;2022-12-18T05:43:35;11.70;99.90
35563;DHT22;21665;40.108;18.302;2022-12-18T05:46:06;11.70;99.90
35563;DHT22;21665;40.108;18.302;2022-12-18T05:48:34;11.70;99.90
35563;DHT22;21665;40.108;18.302;2022-12-18T05:51:09;11.70;99.90
35563;DHT22;21665;40.108;18.302;2022-12-18T05:53:38;11.80;99.90
35563;DHT22;21665;40.108;18.302;2022-12-18T05:56:07;11.80;99.90
35563;DHT22;21665;40.108;18.302;2022-12-18T05:58:35;11.80;99.90
35563;DHT22;21665;40.108;18.302;2022-12-18T06:01:11;11.80;99.90
35563;DHT22;21665;40.108;18.302;2022-12-18T06:03:39;11.90;99.90
35563;DHT22;21665;40.108;18.302;2022-12-18T06:06:21;11.80;99.90
35563;DHT22;21665;40.108;18.302;2022-12-18T06:08:52;11.80;99.90
35563;DHT22;21665;40.108;18.302;2022-12-18T06:11:22;11.90;99.90
35563;DHT22;21665;40.108;18.302;2022-12-18T06:13:56;12.00;99.90
35563;DHT22;21665;40.108;18.302;2022-12-18T06:16:23;12.00;99.90
35563;DHT22;21665;40.108;18.302;2022-12-18T06:18:49;12.00;99.90
35563;DHT22;21665;40.108;18.302;2022-12-18T06:21:16;12.00;99.90
35563;DHT22;21665;40.108;18.302;2022-12-18T06:23:42;12.10;99.90
35563;DHT22;21665;40.108;18.302;2022-12-18T06:26:12;12.10;99.90
35563;DHT22;21665;40.108;18.302;2022-12-18T06:28:42;12.10;99.90
35563;DHT22;21665;40.108;18.302;2022-12-18T06:31:09;12.20;99.90
35563;DHT22;21665;40.108;18.302;2022-12-18T06:33:37;12.10;99.90
35563;DHT22;21665;40.108;18.302;2022-12-18T06:36:09;12.10;99.90
35563;DHT22;21665;40.108;18.302;2022-12-18T06:38:39;12.20;99.90
35563;DHT22;21665;40.108;18.302;2022-12-18T06:41:19;12.30;99.90
35563;DHT22;21665;40.108;18.302;2022-12-18T06:43:46;12.40;99.90
35563;DHT22;21665;40.108;18.302;2022-12-18T06:46:13;12.60;99.90
35563;DHT22;21665;40.108;18.302;2022-12-18T06:48:40;12.80;99.90
35563;DHT22;21665;40.108;18.302;2022-12-18T06:51:07;12.90;99.90
35563;DHT22;21665;40.108;18.302;2022-12-18T06:53:33;12.90;99.90
35563;DHT22;21665;40.108;18.302;2022-12-18T06:56:05;13.00;99.90
35563;DHT22;21665;40.108;18.302;2022-12-18T06:58:32;13.10;99.90
35563;DHT22;21665;40.108;18.302;2022-12-18T07:01:03;13.00;99.90
35563;DHT22;21665;40.108;18.302;2022-12-18T07:03:31;13.00;99.90
35563;DHT22;21665;40.108;18.302;2022-12-18T07:05:58;12.90;99.90
35563;DHT22;21665;40.108;18.302;2022-12-18T07:08:25;12.80;99.90
35563;DHT22;21665;40.108;18.302;2022-12-18T07:10:52;12.90;99.90
35563;DHT22;21665;40.108;18.302;2022-12-18T07:13:23;12.90;99.90
35563;DHT22;21665;40.108;18.302;2022-12-18T07:15:50;13.00;99.90
35563;DHT22;21665;40.108;18.302;2022-12-18T07:18:16;13.00;99.90
35563;DHT22;21665;40.108;18.302;2022-12-18T07:20:52;13.00;99.90
35563;DHT22;21665;40.108;18.302;2022-12-18T07:23:19;13.00;99.90
35563;DHT22;21665;40.108;18.302;2022-12-18T07:25:46;13.00;99.90
35563;DHT22;21665;40.108;18.302;2022-12-18T07:28:16;13.10;99.90
35563;DHT22;21665;40.108;18.302;2022-12-18T07:30:45;13.10;99.90
35563;DHT22;21665;40.108;18.302;2022-12-18T07:33:12;13.20;99.90
35563;DHT22;21665;40.108;18.302;2022-12-18T07:35:39;13.20;99.90
35563;DHT22;21665;40.108;18.302;2022-12-18T07:38:08;13.30;99.90
35563;DHT22;21665;40.108;18.302;2022-12-18T07:40:38;13.30;99.90
35563;DHT22;21665;40.108;18.302;2022-12-18T07:43:05;13.40;99.90
35563;DHT22;21665;40.108;18.302;2022-12-18T07:45:38;13.40;99.90
35563;DHT22;21665;40.108;18.302;2022-12-18T07:48:05;13.40;99.90
35563;DHT22;21665;40.108;18.302;2022-12-18T08:07:51;14.00;99.90
35563;DHT22;21665;40.108;18.302;2022-12-18T08:10:24;14.10;99.90
35563;DHT22;21665;40.108;18.302;2022-12-18T08:12:51;14.10;99.90
35563;DHT22;21665;40.108;18.302;2022-12-18T08:15:18;14.10;99.90
35563;DHT22;21665;40.108;18.302;2022-12-18T08:17:45;14.10;99.90
35563;DHT22;21665;40.108;18.302;2022-12-18T08:20:12;14.10;99.90
35563;DHT22;21665;40.108;18.302;2022-12-18T08:22:50;14.10;99.90
35563;DHT22;21665;40.108;18.302;2022-12-18T08:25:23;14.20;99.90
35563;DHT22;21665;40.108;18.302;2022-12-18T08:27:50;14.30;99.90
35563;DHT22;21665;40.108;18.302;2022-12-18T08:30:20;14.60;99.90
35563;DHT22;21665;40.108;18.302;2022-12-18T08:32:56;14.80;99.90
35563;DHT22;21665;40.108;18.302;2022-12-18T08:35:22;15.10;99.90
35563;DHT22;21665;40.108;18.302;2022-12-18T08:37:49;15.20;99.90
35563;DHT22;21665;40.108;18.302;2022-12-18T08:40:16;15.20;99.90
35563;DHT22;21665;40.108;18.302;2022-12-18T08:42:43;15.00;99.90
35563;DHT22;21665;40.108;18.302;2022-12-18T08:45:43;15.10;99.90
35563;DHT22;21665;40.108;18.302;2022-12-18T08:48:16;14.90;99.90
35563;DHT22;21665;40.108;18.302;2022-12-18T08:50:59;14.80;99.90
35563;DHT22;21665;40.108;18.302;2022-12-18T08:53:29;14.80;99.90
35563;DHT22;21665;40.108;18.302;2022-12-18T08:55:57;14.80;99.90
35563;DHT22;21665;40.108;18.302;2022-12-18T08:58:40;14.90;99.90
35563;DHT22;21665;40.108;18.302;2022-12-18T09:01:11;15.00;99.90
35563;DHT22;21665;40.108;18.302;2022-12-18T09:03:38;15.10;99.90
35563;DHT22;21665;40.108;18.302;2022-12-18T09:06:06;15.10;99.90
35563;DHT22;21665;40.108;18.302;2022-12-18T09:08:36;15.10;99.90
35563;DHT22;21665;40.108;18.302;2022-12-18T09:11:19;15.10;99.90
35563;DHT22;21665;40.108;18.302;2022-12-18T09:13:55;15.10;99.90
35563;DHT22;21665;40.108;18.302;2022-12-18T09:16:23;15.10;99.90
35563;DHT22;21665;40.108;18.302;2022-12-18T09:18:50;15.20;99.90
35563;DHT22;21665;40.108;18.302;2022-12-18T09:21:23;15.30;99.90
35563;DHT22;21665;40.108;18.302;2022-12-18T09:23:50;15.50;99.90
35563;DHT22;21665;40.108;18.302;2022-12-18T09:26:25;15.70;99.90
35563;DHT22;21665;40.108;18.302;2022-12-18T09:29:00;15.70;99.90
35563;DHT22;21665;40.108;18.302;2022-12-18T09:31:28;15.80;99.90
35563;DHT22;21665;40.108;18.302;2022-12-18T09:33:56;15.90;99.90
35563;DHT22;21665;40.108;18.302;2022-12-18T09:36:22;15.80;99.90
35563;DHT22;21665;40.108;18.302;2022-12-18T09:38:49;15.80;99.90
35563;DHT22;21665;40.108;18.302;2022-12-18T09:44:30;15.70;99.90
35563;DHT22;21665;40.108;18.302;2022-12-18T09:49:50;15.70;99.90
35563;DHT22;21665;40.108;18.302;2022-12-18T09:52:30;15.80;99.90
35563;DHT22;21665;40.108;18.302;2022-12-18T09:55:23;15.80;99.90
35563;DHT22;21665;40.108;18.302;2022-12-18T10:00:31;16.00;99.90
35563;DHT22;21665;40.108;18.302;2022-12-18T10:03:10;16.10;99.90
35563;DHT22;21665;40.108;18.302;2022-12-18T10:08:46;16.20;99.90
35563;DHT22;21665;40.108;18.302;2022-12-18T10:19:45;16.40;99.90
35563;DHT22;21665;40.108;18.302;2022-12-18T10:22:37;16.40;99.90
35563;DHT22;21665;40.108;18.302;2022-12-18T10:27:47;16.50;99.90
35563;DHT22;21665;40.108;18.302;2022-12-18T10:30:16;16.50;99.90
35563;DHT22;21665;40.108;18.302;2022-12-18T10:32:43;16.40;99.90
35563;DHT22;21665;40.108;18.302;2022-12-18T10:35:35;16.20;99.90
35563;DHT22;21665;40.108;18.302;2022-12-18T10:47:15;16.50;99.90
35563;DHT22;21665;40.108;18.302;2022-12-18T11:09:21;16.70;99.90
35563;DHT22;21665;40.108;18.302;2022-12-18T11:27:41;16.70;99.90
35563;DHT22;21665;40.108;18.302;2022-12-18T14:45:37;15.10;99.90
35563;DHT22;21665;40.108;18.302;2022-12-18T14:50:55;15.00;99.90
35563;DHT22;21665;40.108;18.302;2022-12-18T14:56:00;14.90;99.90
35563;DHT22;21665;40.108;18.302;2022-12-18T14:58:27;14.90;99.90
35563;DHT22;21665;40.108;18.302;2022-12-18T15:00:54;14.90;99.90
35563;DHT22;21665;40.108;18.302;2022-12-18T15:03:21;14.90;99.90
35563;DHT22;21665;40.108;18.302;2022-12-18T15:05:48;14.90;99.90
35563;DHT22;21665;40.108;18.302;2022-12-18T15:08:34;14.80;99.90
35563;DHT22;21665;40.108;18.302;2022-12-18T15:11:02;14.80;99.90
35563;DHT22;21665;40.108;18.302;2022-12-18T15:13:28;14.70;99.90
35563;DHT22;21665;40.108;18.302;2022-12-18T15:16:01;14.70;99.90
35563;DHT22;21665;40.108;18.302;2022-12-18T15:18:35;14.70;99.90
35563;DHT22;21665;40.108;18.302;2022-12-18T15:21:10;14.70;99.90
35563;DHT22;21665;40.108;18.302;2022-12-18T15:23:54;14.60;99.90
35563;DHT22;21665;40.108;18.302;2022-12-18T15:26:37;14.60;99.90
35563;DHT22;21665;40.108;18.302;2022-12-18T15:29:04;14.60;99.90
35563;DHT22;21665;40.108;18.302;2022-12-18T15:31:32;14.50;99.90
35563;DHT22;21665;40.108;18.302;2022-12-18T15:34:16;14.50;99.90
35563;DHT22;21665;40.108;18.302;2022-12-18T15:36:45;14.40;99.90
35563;DHT22;21665;40.108;18.302;2022-12-18T15:39:13;14.40;99.90
35563;DHT22;21665;40.108;18.302;2022-12-18T15:41:39;14.30;99.90
35563;DHT22;21665;40.108;18.302;2022-12-18T15:44:35;14.30;99.90
35563;DHT22;21665;40.108;18.302;2022-12-18T15:47:02;14.30;99.90
35563;DHT22;21665;40.108;18.302;2022-12-18T15:49:31;14.20;99.90
35563;DHT22;21665;40.108;18.302;2022-12-18T15:52:02;14.20;99.90
35563;DHT22;21665;40.108;18.302;2022-12-18T15:54:30;14.20;99.90
35563;DHT22;21665;40.108;18.302;2022-12-18T15:57:15;14.20;99.90
35563;DHT22;21665;40.108;18.302;2022-12-18T15:59:52;14.20;99.90
35563;DHT22;21665;40.108;18.302;2022-12-18T16:02:19;14.10;99.90
35563;DHT22;21665;40.108;18.302;2022-12-18T16:04:46;14.10;99.90
35563;DHT22;21665;40.108;18.302;2022-12-18T16:07:12;14.10;99.90
35563;DHT22;21665;40.108;18.302;2022-12-18T16:09:39;14.10;99.90
35563;DHT22;21665;40.108;18.302;2022-12-18T16:12:06;14.00;99.90
35563;DHT22;21665;40.108;18.302;2022-12-18T16:14:37;14.00;99.90
35563;DHT22;21665;40.108;18.302;2022-12-18T16:17:08;14.00;99.90
35563;DHT22;21665;40.108;18.302;2022-12-18T16:19:35;14.00;99.90
35563;DHT22;21665;40.108;18.302;2022-12-18T16:22:01;13.90;99.90
35563;DHT22;21665;40.108;18.302;2022-12-18T16:24:32;13.90;99.90
35563;DHT22;21665;40.108;18.302;2022-12-18T16:27:00;13.90;99.90
35563;DHT22;21665;40.108;18.302;2022-12-18T16:29:28;13.90;99.90
35563;DHT22;21665;40.108;18.302;2022-12-18T16:31:59;13.90;99.90
35563;DHT22;21665;40.108;18.302;2022-12-18T16:34:33;13.90;99.90
35563;DHT22;21665;40.108;18.302;2022-12-18T16:37:03;13.90;99.90
35563;DHT22;21665;40.108;18.302;2022-12-18T16:39:30;13.90;99.90
35563;DHT22;21665;40.108;18.302;2022-12-18T16:41:57;13.90;99.90
35563;DHT22;21665;40.108;18.302;2022-12-18T16:44:24;13.80;99.90
35563;DHT22;21665;40.108;18.302;2022-12-18T16:46:50;13.90;99.90
35563;DHT22;21665;40.108;18.302;2022-12-18T16:49:17;13.80;99.90
35563;DHT22;21665;40.108;18.302;2022-12-18T16:51:46;13.80;99.90
35563;DHT22;21665;40.108;18.302;2022-12-18T16:54:12;13.80;99.90
35563;DHT22;21665;40.108;18.302;2022-12-18T16:56:39;13.70;99.90
35563;DHT22;21665;40.108;18.302;2022-12-18T16:59:05;13.70;99.90
35563;DHT22;21665;40.108;18.302;2022-12-18T17:01:32;13.70;99.90
35563;DHT22;21665;40.108;18.302;2022-12-18T17:04:04;13.60;99.90
35563;DHT22;21665;40.108;18.302;2022-12-18T17:06:33;13.60;99.90
35563;DHT22;21665;40.108;18.302;2022-12-18T17:09:03;13.60;99.90
35563;DHT22;21665;40.108;18.302;2022-12-18T17:11:32;13.60;99.90
35563;DHT22;21665;40.108;18.302;2022-12-18T17:14:04;13.60;99.90
35563;DHT22;21665;40.108;18.302;2022-12-18T17:16:32;13.50;99.90
35563;DHT22;21665;40.108;18.302;2022-12-18T17:18:58;13.50;99.90
35563;DHT22;21665;40.108;18.302;2022-12-18T17:21:24;13.50;99.90
35563;DHT22;21665;40.108;18.302;2022-12-18T17:23:54;13.50;99.90
35563;DHT22;21665;40.108;18.302;2022-12-18T17:26:20;13.50;99.90
35563;DHT22;21665;40.108;18.302;2022-12-18T17:28:50;13.50;99.90
35563;DHT22;21665;40.108;18.302;2022-12-18T17:31:19;13.50;99.90
35563;DHT22;21665;40.108;18.302;2022-12-18T17:33:46;13.50;99.90
35563;DHT22;21665;40.108;18.302;2022-12-18T17:36:13;13.50;99.90
35563;DHT22;21665;40.108;18.302;2022-12-18T17:38:40;13.40;99.90
35563;DHT22;21665;40.108;18.302;2022-12-18T17:41:10;13.40;99.90
35563;DHT22;21665;40.108;18.302;2022-12-18T17:43:37;13.40;99.90
35563;DHT22;21665;40.108;18.302;2022-12-18T17:46:13;13.40;99.90
35563;DHT22;21665;40.108;18.302;2022-12-18T17:48:40;13.40;99.90
35563;DHT22;21665;40.108;18.302;2022-12-18T17:51:08;13.40;99.90
35563;DHT22;21665;40.108;18.302;2022-12-18T17:53:34;13.40;99.90
35563;DHT22;21665;40.108;18.302;2022-12-18T17:56:01;13.40;99.90
35563;DHT22;21665;40.108;18.302;2022-12-18T17:58:35;13.40;99.90
35563;DHT22;21665;40.108;18.302;2022-12-18T18:01:03;13.40;99.90
35563;DHT22;21665;40.108;18.302;2022-12-18T18:03:31;13.40;99.90
35563;DHT22;21665;40.108;18.302;2022-12-18T18:05:59;13.30;99.90
35563;DHT22;21665;40.108;18.302;2022-12-18T18:08:27;13.40;99.90
35563;DHT22;21665;40.108;18.302;2022-12-18T18:10:54;13.30;99.90
35563;DHT22;21665;40.108;18.302;2022-12-18T18:13:41;13.30;99.90
35563;DHT22;21665;40.108;18.302;2022-12-18T18:16:36;13.30;99.90
35563;DHT22;21665;40.108;18.302;2022-12-18T18:19:05;13.30;99.90
35563;DHT22;21665;40.108;18.302;2022-12-18T18:21:33;13.20;99.90
35563;DHT22;21665;40.108;18.302;2022-12-18T18:24:01;13.20;99.90
35563;DHT22;21665;40.108;18.302;2022-12-18T18:26:30;13.20;99.90
35563;DHT22;21665;40.108;18.302;2022-12-18T18:29:00;13.20;99.90
35563;DHT22;21665;40.108;18.302;2022-12-18T18:31:28;13.10;99.90
35563;DHT22;21665;40.108;18.302;2022-12-18T18:33:55;13.10;99.90
35563;DHT22;21665;40.108;18.302;2022-12-18T18:36:22;13.10;99.90
35563;DHT22;21665;40.108;18.302;2022-12-18T18:38:50;13.10;99.90
35563;DHT22;21665;40.108;18.302;2022-12-18T18:41:17;13.00;99.90
35563;DHT22;21665;40.108;18.302;2022-12-18T18:43:44;13.00;99.90
35563;DHT22;21665;40.108;18.302;2022-12-18T18:46:15;13.00;99.90
35563;DHT22;21665;40.108;18.302;2022-12-18T18:48:41;13.00;99.90
35563;DHT22;21665;40.108;18.302;2022-12-18T18:51:11;13.00;99.90
35563;DHT22;21665;40.108;18.302;2022-12-18T18:53:42;12.90;99.90
35563;DHT22;21665;40.108;18.302;2022-12-18T18:56:11;12.90;99.90
35563;DHT22;21665;40.108;18.302;2022-12-18T18:58:37;12.90;99.90
35563;DHT22;21665;40.108;18.302;2022-12-18T19:01:13;12.80;99.90
35563;DHT22;21665;40.108;18.302;2022-12-18T19:03:40;12.80;99.90
35563;DHT22;21665;40.108;18.302;2022-12-18T19:06:07;12.80;99.90
35563;DHT22;21665;40.108;18.302;2022-12-18T19:08:36;12.80;99.90
35563;DHT22;21665;40.108;18.302;2022-12-18T19:11:06;12.80;99.90
35563;DHT22;21665;40.108;18.302;2022-12-18T19:13:53;12.70;99.90
35563;DHT22;21665;40.108;18.302;2022-12-18T19:16:20;12.70;99.90
35563;DHT22;21665;40.108;18.302;2022-12-18T19:18:46;12.70;99.90
35563;DHT22;21665;40.108;18.302;2022-12-18T19:21:12;12.70;99.90
35563;DHT22;21665;40.108;18.302;2022-12-18T19:23:39;12.70;99.90
35563;DHT22;21665;40.108;18.302;2022-12-18T19:26:07;12.70;99.90
35563;DHT22;21665;40.108;18.302;2022-12-18T19:28:35;12.70;99.90
35563;DHT22;21665;40.108;18.302;2022-12-18T19:31:04;12.60;99.90
35563;DHT22;21665;40.108;18.302;2022-12-18T19:33:34;12.60;99.90
35563;DHT22;21665;40.108;18.302;2022-12-18T19:36:18;12.60;99.90
35563;DHT22;21665;40.108;18.302;2022-12-18T19:38:45;12.60;99.90
35563;DHT22;21665;40.108;18.302;2022-12-18T19:41:12;12.60;99.90
35563;DHT22;21665;40.108;18.302;2022-12-18T19:43:39;12.60;99.90
35563;DHT22;21665;40.108;18.302;2022-12-18T20:14:02;12.70;99.90
35563;DHT22;21665;40.108;18.302;2022-12-18T20:16:29;12.80;99.90
35563;DHT22;21665;40.108;18.302;2022-12-18T20:19:07;12.80;99.90
35563;DHT22;21665;40.108;18.302;2022-12-18T20:24:28;12.80;99.90
35563;DHT22;21665;40.108;18.302;2022-12-18T20:27:01;12.80;99.90
35563;DHT22;21665;40.108;18.302;2022-12-18T20:29:43;12.80;99.90
35563;DHT22;21665;40.108;18.302;2022-12-18T20:32:33;12.80;99.90
35563;DHT22;21665;40.108;18.302;2022-12-18T20:35:10;12.80;99.90
35563;DHT22;21665;40.108;18.302;2022-12-18T20:44:58;12.80;99.90
35563;DHT22;21665;40.108;18.302;2022-12-18T20:47:28;12.70;99.90
35563;DHT22;21665;40.108;18.302;2022-12-18T20:50:07;12.70;99.90
35563;DHT22;21665;40.108;18.302;2022-12-18T20:52:37;12.70;99.90
35563;DHT22;21665;40.108;18.302;2022-12-18T20:55:11;12.60;99.90
35563;DHT22;21665;40.108;18.302;2022-12-18T20:57:37;12.60;99.90
35563;DHT22;21665;40.108;18.302;2022-12-18T21:00:07;12.60;99.90
35563;DHT22;21665;40.108;18.302;2022-12-18T21:02:37;12.50;99.90
35563;DHT22;21665;40.108;18.302;2022-12-18T21:05:12;12.60;99.90
35563;DHT22;21665;40.108;18.302;2022-12-18T21:07:42;12.50;99.90
35563;DHT22;21665;40.108;18.302;2022-12-18T21:10:12;12.50;99.90
35563;DHT22;21665;40.108;18.302;2022-12-18T21:12:38;12.50;99.90
35563;DHT22;21665;40.108;18.302;2022-12-18T21:15:15;12.50;99.90
35563;DHT22;21665;40.108;18.302;2022-12-18T21:17:41;12.50;99.90
35563;DHT22;21665;40.108;18.302;2022-12-18T21:20:08;12.50;99.90
35563;DHT22;21665;40.108;18.302;2022-12-18T21:22:38;12.50;99.90
35563;DHT22;21665;40.108;18.302;2022-12-18T21:25:10;12.50;99.90
35563;DHT22;21665;40.108;18.302;2022-12-18T21:27:39;12.50;99.90
35563;DHT22;21665;40.108;18.302;2022-12-18T21:30:12;12.50;99.90
35563;DHT22;21665;40.108;18.302;2022-12-18T21:32:41;12.50;99.90
35563;DHT22;21665;40.108;18.302;2022-12-18T21:35:08;12.50;99.90
35563;DHT22;21665;40.108;18.302;2022-12-18T21:41:21;12.60;99.90
35563;DHT22;21665;40.108;18.302;2022-12-18T21:44:17;12.50;99.90
35563;DHT22;21665;40.108;18.302;2022-12-18T21:46:47;12.50;99.90
35563;DHT22;21665;40.108;18.302;2022-12-18T21:49:15;12.50;99.90
35563;DHT22;21665;40.108;18.302;2022-12-18T21:51:44;12.50;99.90
35563;DHT22;21665;40.108;18.302;2022-12-18T21:54:11;12.50;99.90
35563;DHT22;21665;40.108;18.302;2022-12-18T21:57:05;12.50;99.90
35563;DHT22;21665;40.108;18.302;2022-12-18T21:59:36;12.50;99.90
35563;DHT22;21665;40.108;18.302;2022-12-18T22:02:06;12.50;99.90
35563;DHT22;21665;40.108;18.302;2022-12-18T22:04:33;12.50;99.90
35563;DHT22;21665;40.108;18.302;2022-12-18T22:07:00;12.50;99.90
35563;DHT22;21665;40.108;18.302;2022-12-18T22:09:27;12.50;99.90
35563;DHT22;21665;40.108;18.302;2022-12-18T22:11:54;12.50;99.90
35563;DHT22;21665;40.108;18.302;2022-12-18T22:14:21;12.50;99.90
35563;DHT22;21665;40.108;18.302;2022-12-18T22:16:49;12.50;99.90
35563;DHT22;21665;40.108;18.302;2022-12-18T22:19:18;12.50;99.90
35563;DHT22;21665;40.108;18.302;2022-12-18T22:21:47;12.50;99.90
35563;DHT22;21665;40.108;18.302;2022-12-18T22:24:19;12.50;99.90
35563;DHT22;21665;40.108;18.302;2022-12-18T22:26:48;12.40;99.90
35563;DHT22;21665;40.108;18.302;2022-12-18T22:29:17;12.40;99.90